createdAt,value
2023-02-16T00:01:52.368Z,98632.69
2023-02-16T00:04:23.198Z,98633.47
2023-02-16T00:06:57.473Z,98628.09
2023-02-16T00:09:27.689Z,98629.66
2023-02-16T00:12:13.835Z,98631.97
2023-02-16T00:14:42.588Z,98631.88
2023-02-16T00:17:12.643Z,98639.00
2023-02-16T00:19:43.704Z,98636.88
2023-02-16T00:22:15.696Z,98634.16
2023-02-16T00:24:51.375Z,98636.69
2023-02-16T00:27:20.192Z,98637.69
2023-02-16T00:29:50.434Z,98641.56
2023-02-16T00:32:19.820Z,98638.06
2023-02-16T00:34:49.376Z,98626.31
2023-02-16T00:37:19.208Z,98630.13
2023-02-16T00:39:47.704Z,98630.56
2023-02-16T00:42:21.196Z,98625.69
2023-02-16T00:44:51.153Z,98631.28
2023-02-16T00:50:32.999Z,98618.69
2023-02-16T00:53:03.692Z,98629.66
2023-02-16T00:55:37.310Z,98628.53
2023-02-16T00:58:08.921Z,98622.66
2023-02-16T01:00:39.741Z,98629.91
2023-02-16T01:03:16.076Z,98634.25
2023-02-16T01:05:46.851Z,98628.03
2023-02-16T01:08:36.840Z,98625.97
2023-02-16T01:11:11.409Z,98626.66
2023-02-16T01:13:47.089Z,98631.16
2023-02-16T01:16:19.526Z,98619.97
2023-02-16T01:18:49.489Z,98620.72
2023-02-16T01:21:21.982Z,98618.31
2023-02-16T01:23:53.033Z,98616.91
2023-02-16T01:26:23.086Z,98623.72
2023-02-16T01:28:52.667Z,98622.53
2023-02-16T01:31:23.892Z,98620.00
2023-02-16T01:33:52.664Z,98623.13
2023-02-16T01:36:27.107Z,98610.81
2023-02-16T01:39:00.430Z,98619.13
2023-02-16T01:41:45.995Z,98617.47
2023-02-16T01:44:17.982Z,98615.47
2023-02-16T01:46:53.150Z,98614.16
2023-02-16T01:49:23.437Z,98615.91
2023-02-16T01:51:58.748Z,98613.34
2023-02-16T01:54:49.809Z,98615.13
2023-02-16T01:57:28.685Z,98611.84
2023-02-16T02:00:26.775Z,98616.66
2023-02-16T02:03:17.189Z,98604.75
2023-02-16T02:05:44.632Z,98610.31
2023-02-16T02:08:29.560Z,98597.56
2023-02-16T02:11:07.042Z,98595.09
2023-02-16T02:13:40.480Z,98596.44
2023-02-16T02:16:35.063Z,98592.50
2023-02-16T02:19:06.199Z,98589.44
2023-02-16T02:22:15.033Z,98591.84
2023-02-16T02:25:12.483Z,98588.00
2023-02-16T02:27:46.892Z,98584.97
2023-02-16T02:30:33.969Z,98582.66
2023-02-16T02:33:22.558Z,98580.81
2023-02-16T02:35:59.205Z,98575.50
2023-02-16T02:38:35.832Z,98569.25
2023-02-16T02:41:10.495Z,98579.16
2023-02-16T02:43:43.847Z,98575.00
2023-02-16T02:46:16.125Z,98569.97
2023-02-16T02:48:52.682Z,98573.91
2023-02-16T02:51:29.974Z,98571.28
2023-02-16T02:54:24.145Z,98570.16
2023-02-16T02:57:18.134Z,98576.97
2023-02-16T03:00:14.822Z,98575.94
2023-02-16T03:02:45.861Z,98571.91
2023-02-16T03:05:17.571Z,98567.94
2023-02-16T03:07:48.621Z,98573.63
2023-02-16T03:10:42.962Z,98567.84
2023-02-16T03:13:41.594Z,98569.72
2023-02-16T03:16:15.493Z,98572.22
2023-02-16T03:19:04.522Z,98574.38
2023-02-16T03:21:51.648Z,98573.81
2023-02-16T03:24:42.538Z,98566.97
2023-02-16T03:27:28.617Z,98560.59
2023-02-16T03:30:00.928Z,98554.13
2023-02-16T03:32:30.860Z,98563.84
2023-02-16T03:35:07.144Z,98555.25
2023-02-16T03:37:36.168Z,98559.66
2023-02-16T03:40:25.278Z,98564.09
2023-02-16T03:42:53.891Z,98560.38
2023-02-16T03:45:27.695Z,98556.47
2023-02-16T03:47:58.215Z,98562.59
2023-02-16T03:50:27.586Z,98556.84
2023-02-16T03:53:07.003Z,98560.09
2023-02-16T03:55:36.822Z,98552.13
2023-02-16T03:58:05.536Z,98557.97
2023-02-16T04:00:38.294Z,98561.13
2023-02-16T04:03:09.632Z,98560.91
2023-02-16T04:05:38.743Z,98549.81
2023-02-16T04:08:10.091Z,98550.47
2023-02-16T04:10:39.250Z,98547.63
2023-02-16T04:13:07.499Z,98545.38
2023-02-16T04:15:36.558Z,98555.25
2023-02-16T04:18:07.104Z,98552.72
2023-02-16T04:20:36.844Z,98549.47
2023-02-16T04:23:05.250Z,98549.25
2023-02-16T04:25:33.649Z,98536.44
2023-02-16T04:28:02.716Z,98538.50
2023-02-16T04:30:32.732Z,98536.75
2023-02-16T04:33:02.836Z,98531.25
2023-02-16T04:35:32.611Z,98533.03
2023-02-16T04:38:01.945Z,98535.13
2023-02-16T04:40:31.064Z,98534.16
2023-02-16T04:43:00.894Z,98524.25
2023-02-16T04:45:29.498Z,98517.59
2023-02-16T04:47:58.086Z,98517.25
2023-02-16T04:50:26.604Z,98516.59
2023-02-16T04:52:56.330Z,98518.16
2023-02-16T04:55:25.050Z,98520.56
2023-02-16T04:57:53.675Z,98519.69
2023-02-16T05:00:23.204Z,98520.16
2023-02-16T05:02:52.069Z,98524.09
2023-02-16T05:05:20.650Z,98519.81
2023-02-16T05:07:50.739Z,98514.56
2023-02-16T05:10:20.806Z,98516.66
2023-02-16T05:13:06.951Z,98518.59
2023-02-16T05:15:36.901Z,98524.97
2023-02-16T05:18:05.607Z,98523.75
2023-02-16T05:20:50.891Z,98520.06
2023-02-16T05:23:19.430Z,98521.25
2023-02-16T05:25:49.713Z,98515.13
2023-02-16T05:28:19.098Z,98519.28
2023-02-16T05:30:47.923Z,98521.69
2023-02-16T05:33:16.546Z,98514.03
2023-02-16T05:35:45.573Z,98518.63
2023-02-16T05:38:15.434Z,98521.81
2023-02-16T05:40:44.554Z,98512.47
2023-02-16T05:43:20.721Z,98521.03
2023-02-16T05:45:53.055Z,98521.56
2023-02-16T05:48:21.683Z,98521.25
2023-02-16T05:50:50.188Z,98525.31
2023-02-16T05:53:18.482Z,98521.47
2023-02-16T05:55:47.112Z,98517.97
2023-02-16T05:58:15.875Z,98525.66
2023-02-16T06:00:48.606Z,98536.38
2023-02-16T06:03:17.564Z,98534.75
2023-02-16T06:05:47.459Z,98531.44
2023-02-16T06:08:15.744Z,98534.63
2023-02-16T06:10:43.996Z,98543.19
2023-02-16T06:13:12.316Z,98548.56
2023-02-16T06:15:40.593Z,98544.28
2023-02-16T06:18:11.468Z,98539.91
2023-02-16T06:20:39.834Z,98546.72
2023-02-16T06:23:09.717Z,98556.69
2023-02-16T06:25:38.328Z,98561.84
2023-02-16T06:28:06.787Z,98552.63
2023-02-16T06:30:35.647Z,98561.97
2023-02-16T06:33:04.081Z,98561.50
2023-02-16T06:35:33.798Z,98567.19
2023-02-16T06:38:02.179Z,98559.41
2023-02-16T06:40:30.636Z,98564.75
2023-02-16T06:43:02.179Z,98561.09
2023-02-16T06:45:30.621Z,98565.81
2023-02-16T06:47:59.496Z,98565.50
2023-02-16T06:50:28.877Z,98561.94
2023-02-16T06:53:03.707Z,98560.91
2023-02-16T06:55:38.132Z,98568.25
2023-02-16T06:58:07.706Z,98574.50
2023-02-16T07:00:36.355Z,98568.28
2023-02-16T07:03:04.922Z,98568.16
2023-02-16T07:05:33.225Z,98571.34
2023-02-16T07:08:05.696Z,98570.00
2023-02-16T07:10:48.915Z,98563.03
2023-02-16T07:13:18.253Z,98561.88
2023-02-16T07:15:46.886Z,98565.03
2023-02-16T07:18:15.182Z,98561.44
2023-02-16T07:20:43.658Z,98559.59
2023-02-16T07:23:15.337Z,98558.63
2023-02-16T07:25:43.905Z,98558.56
2023-02-16T07:28:12.229Z,98558.28
2023-02-16T07:30:40.981Z,98557.41
2023-02-16T07:33:09.589Z,98557.66
2023-02-16T07:35:38.733Z,98564.09
2023-02-16T07:38:08.386Z,98554.94
2023-02-16T07:40:38.947Z,98560.09
2023-02-16T07:43:08.160Z,98566.25
2023-02-16T07:45:36.804Z,98558.75
2023-02-16T07:48:07.059Z,98557.28
2023-02-16T07:50:35.690Z,98562.50
2023-02-16T07:53:04.532Z,98566.66
2023-02-16T07:55:33.571Z,98563.78
2023-02-16T07:58:04.771Z,98559.97
2023-02-16T08:00:37.027Z,98558.22
2023-02-16T08:03:06.017Z,98563.94
2023-02-16T08:05:35.723Z,98557.09
2023-02-16T08:08:03.971Z,98555.63
2023-02-16T08:10:33.973Z,98558.59
2023-02-16T08:13:05.115Z,98560.13
2023-02-16T08:15:33.561Z,98557.31
2023-02-16T08:18:02.254Z,98562.50
2023-02-16T08:20:48.163Z,98560.28
2023-02-16T08:23:19.270Z,98557.00
2023-02-16T08:25:52.239Z,98557.53
2023-02-16T08:28:22.479Z,98553.00
2023-02-16T08:30:51.255Z,98549.03
2023-02-16T08:33:20.698Z,98553.50
2023-02-16T08:35:50.805Z,98559.50
2023-02-16T08:38:20.918Z,98554.22
2023-02-16T08:40:50.440Z,98549.22
2023-02-16T08:43:21.148Z,98552.75
2023-02-16T08:45:53.687Z,98553.25
2023-02-16T08:48:26.825Z,98540.59
2023-02-16T08:50:59.080Z,98538.25
2023-02-16T08:53:36.092Z,98533.84
2023-02-16T08:56:09.984Z,98536.63
2023-02-16T08:58:38.966Z,98528.34
2023-02-16T09:03:55.406Z,98525.44
2023-02-16T09:06:24.477Z,98527.00
2023-02-16T09:08:54.923Z,98517.84
2023-02-16T09:11:25.745Z,98517.59
2023-02-16T09:13:54.064Z,98514.38
2023-02-16T09:16:24.948Z,98520.16
2023-02-16T09:18:53.694Z,98509.44
2023-02-16T09:21:25.586Z,98514.66
2023-02-16T09:23:56.614Z,98511.16
2023-02-16T09:26:26.956Z,98516.66
2023-02-16T09:28:56.356Z,98500.13
2023-02-16T09:31:31.266Z,98499.78
2023-02-16T09:34:02.434Z,98498.63
2023-02-16T09:36:32.061Z,98502.53
2023-02-16T09:39:00.771Z,98495.34
2023-02-16T09:41:34.032Z,98504.50
2023-02-16T09:44:11.020Z,98502.56
2023-02-16T09:46:42.846Z,98503.09
2023-02-16T09:49:23.920Z,98502.00
2023-02-16T09:52:00.221Z,98501.78
2023-02-16T09:54:35.882Z,98492.69
2023-02-16T09:57:09.226Z,98501.41
2023-02-16T09:59:45.360Z,98499.31
2023-02-16T10:02:32.143Z,98502.63
2023-02-16T10:05:14.485Z,98497.28
2023-02-16T10:07:50.325Z,98498.94
2023-02-16T10:10:23.252Z,98502.41
2023-02-16T10:12:55.936Z,98503.22
2023-02-16T10:15:26.410Z,98497.31
2023-02-16T10:17:59.366Z,98495.34
2023-02-16T10:20:38.229Z,98504.31
2023-02-16T10:23:15.134Z,98495.88
2023-02-16T10:25:47.051Z,98496.00
2023-02-16T10:28:18.326Z,98483.03
2023-02-16T10:30:51.615Z,98487.69
2023-02-16T10:33:29.444Z,98481.13
2023-02-16T10:36:01.984Z,98491.69
2023-02-16T10:38:37.671Z,98474.38
2023-02-16T10:41:14.954Z,98470.53
2023-02-16T10:43:46.769Z,98464.91
2023-02-16T10:46:18.905Z,98467.88
2023-02-16T10:48:49.076Z,98474.06
2023-02-16T10:51:18.312Z,98473.94
2023-02-16T10:53:48.844Z,98461.22
2023-02-16T10:56:32.375Z,98461.94
2023-02-16T10:59:02.322Z,98458.78
2023-02-16T11:01:38.710Z,98449.22
2023-02-16T11:04:15.347Z,98445.78
2023-02-16T11:06:43.671Z,98439.13
2023-02-16T11:09:17.977Z,98437.56
2023-02-16T11:11:48.755Z,98431.53
2023-02-16T11:14:23.288Z,98439.31
2023-02-16T11:17:22.464Z,98428.06
2023-02-16T11:19:56.983Z,98428.09
2023-02-16T11:22:32.579Z,98431.53
2023-02-16T11:25:22.216Z,98430.66
2023-02-16T11:28:16.576Z,98443.63
2023-02-16T11:30:48.308Z,98439.06
2023-02-16T11:33:24.728Z,98432.72
2023-02-16T11:35:57.397Z,98424.13
2023-02-16T11:38:32.419Z,98415.09
2023-02-16T11:43:58.053Z,98412.63
2023-02-16T11:46:26.993Z,98406.13
2023-02-16T11:48:55.572Z,98405.59
2023-02-16T11:51:46.741Z,98398.00
2023-02-16T11:54:18.811Z,98396.38
2023-02-16T11:57:03.117Z,98390.16
2023-02-16T11:59:36.361Z,98381.22
2023-02-16T12:02:18.936Z,98387.47
2023-02-16T12:04:59.556Z,98379.38
2023-02-16T12:07:35.919Z,98373.13
2023-02-16T12:10:12.460Z,98368.56
2023-02-16T12:12:51.239Z,98371.72
2023-02-16T12:15:24.866Z,98360.97
2023-02-16T12:18:16.465Z,98358.09
2023-02-16T12:20:50.658Z,98350.53
2023-02-16T12:23:30.292Z,98346.66
2023-02-16T12:26:12.438Z,98349.44
2023-02-16T12:28:44.371Z,98347.22
2023-02-16T12:31:17.529Z,98345.78
2023-02-16T12:33:52.455Z,98341.44
2023-02-16T12:36:50.873Z,98337.69
2023-02-16T12:39:26.696Z,98335.09
2023-02-16T12:42:13.465Z,98331.22
2023-02-16T12:44:46.435Z,98327.25
2023-02-16T12:47:22.004Z,98323.56
2023-02-16T12:49:54.794Z,98320.16
2023-02-16T12:52:30.812Z,98319.63
2023-02-16T12:55:09.091Z,98309.84
2023-02-16T12:57:38.025Z,98313.94
2023-02-16T13:00:17.844Z,98315.22
2023-02-16T13:02:49.668Z,98309.16
2023-02-16T13:05:23.476Z,98315.44
2023-02-16T13:07:55.786Z,98310.81
2023-02-16T13:10:28.882Z,98302.41
2023-02-16T13:13:01.615Z,98302.66
2023-02-16T13:15:34.626Z,98302.66
2023-02-16T13:18:05.845Z,98291.78
2023-02-16T13:20:34.296Z,98296.44
2023-02-16T13:23:26.381Z,98289.59
2023-02-16T13:26:26.492Z,98283.41
2023-02-16T13:29:26.339Z,98284.00
2023-02-16T13:32:06.648Z,98280.66
2023-02-16T13:34:48.153Z,98280.78
2023-02-16T13:37:25.336Z,98275.78
2023-02-16T13:40:14.165Z,98281.28
2023-02-16T13:42:55.671Z,98274.81
2023-02-16T13:45:27.634Z,98264.38
2023-02-16T13:47:57.670Z,98269.81
2023-02-16T13:50:29.368Z,98270.44
2023-02-16T13:52:59.152Z,98276.25
2023-02-16T13:55:31.850Z,98284.44
2023-02-16T13:58:05.810Z,98277.91
2023-02-16T14:00:37.110Z,98277.16
2023-02-16T14:03:39.435Z,98280.31
2023-02-16T14:06:42.876Z,98283.75
2023-02-16T14:09:34.735Z,98280.84
2023-02-16T14:12:05.876Z,98275.94
2023-02-16T14:14:37.821Z,98283.34
2023-02-16T14:17:24.140Z,98278.53
2023-02-16T14:19:54.626Z,98275.56
2023-02-16T14:22:25.254Z,98279.38
2023-02-16T14:24:54.364Z,98276.34
2023-02-16T14:27:43.561Z,98284.84
2023-02-16T14:30:32.625Z,98282.50
2023-02-16T14:33:05.255Z,98283.13
2023-02-16T14:35:36.004Z,98280.75
2023-02-16T14:38:05.409Z,98279.75
2023-02-16T14:40:53.069Z,98284.19
2023-02-16T14:43:28.272Z,98275.59
2023-02-16T14:46:08.753Z,98284.28
2023-02-16T14:49:15.005Z,98279.22
2023-02-16T14:52:17.117Z,98287.06
2023-02-16T14:55:12.708Z,98273.22
2023-02-16T14:57:45.871Z,98281.84
2023-02-16T15:00:19.910Z,98280.91
2023-02-16T15:02:59.224Z,98283.47
2023-02-16T15:05:32.498Z,98283.44
2023-02-16T15:08:05.719Z,98279.91
2023-02-16T15:10:34.023Z,98282.47
2023-02-16T15:13:02.374Z,98287.59
2023-02-16T15:15:42.924Z,98278.94
2023-02-16T15:18:17.843Z,98290.22
2023-02-16T15:20:49.428Z,98296.25
2023-02-16T15:23:21.012Z,98292.75
2023-02-16T15:26:00.302Z,98296.16
2023-02-16T15:28:30.931Z,98291.72
2023-02-16T15:31:00.637Z,98287.34
2023-02-16T15:33:38.617Z,98287.31
2023-02-16T15:36:13.482Z,98290.69
2023-02-16T15:38:44.352Z,98288.84
2023-02-16T15:41:15.730Z,98279.34
2023-02-16T15:43:47.688Z,98284.34
2023-02-16T15:46:23.061Z,98279.16
2023-02-16T15:48:53.252Z,98280.00
2023-02-16T15:51:26.748Z,98273.06
2023-02-16T15:53:57.705Z,98275.56
2023-02-16T15:56:34.925Z,98275.44
2023-02-16T15:59:05.162Z,98273.59
2023-02-16T16:01:35.525Z,98273.47
2023-02-16T16:04:20.453Z,98282.00
2023-02-16T16:06:51.788Z,98287.00
2023-02-16T16:09:25.704Z,98289.38
2023-02-16T16:11:56.255Z,98284.84
2023-02-16T16:14:26.506Z,98291.53
2023-02-16T16:16:55.617Z,98290.53
2023-02-16T16:19:33.819Z,98299.78
2023-02-16T16:22:04.605Z,98289.34
2023-02-16T16:24:38.331Z,98293.47
2023-02-16T16:27:09.877Z,98294.22
2023-02-16T16:29:41.495Z,98295.75
2023-02-16T16:32:22.055Z,98298.06
2023-02-16T16:34:52.613Z,98302.09
2023-02-16T16:37:28.562Z,98305.28
2023-02-16T16:40:06.665Z,98306.72
2023-02-16T16:42:39.473Z,98306.44
2023-02-16T16:45:34.979Z,98302.75
2023-02-16T16:48:10.435Z,98307.88
2023-02-16T16:50:41.203Z,98315.44
2023-02-16T16:53:41.586Z,98317.81
2023-02-16T16:56:12.381Z,98313.47
2023-02-16T16:58:42.087Z,98319.09
2023-02-16T17:01:14.767Z,98330.81
2023-02-16T17:03:44.311Z,98331.34
2023-02-16T17:06:15.776Z,98337.59
2023-02-16T17:08:45.291Z,98337.09
2023-02-16T17:11:19.098Z,98340.94
2023-02-16T17:13:48.474Z,98337.31
2023-02-16T17:16:21.938Z,98329.19
2023-02-16T17:18:52.565Z,98339.81
2023-02-16T17:21:29.773Z,98339.38
2023-02-16T17:24:00.929Z,98333.03
2023-02-16T17:26:29.869Z,98337.88
2023-02-16T17:28:59.558Z,98341.44
2023-02-16T17:31:29.167Z,98329.44
2023-02-16T17:33:59.140Z,98334.03
2023-02-16T17:36:32.109Z,98345.63
2023-02-16T17:39:05.638Z,98337.34
2023-02-16T17:41:36.466Z,98338.44
2023-02-16T17:44:07.444Z,98343.81
2023-02-16T17:46:37.509Z,98336.38
2023-02-16T17:49:07.431Z,98334.22
2023-02-16T17:51:38.061Z,98337.63
2023-02-16T17:54:10.984Z,98342.81
2023-02-16T17:56:42.190Z,98342.69
2023-02-16T17:59:15.898Z,98347.44
2023-02-16T18:01:46.112Z,98350.53
2023-02-16T18:04:19.228Z,98348.75
2023-02-16T18:06:52.870Z,98354.97
2023-02-16T18:09:24.690Z,98360.16
2023-02-16T18:11:56.141Z,98359.16
2023-02-16T18:14:26.017Z,98353.69
2023-02-16T18:16:55.162Z,98352.69
2023-02-16T18:19:25.631Z,98359.44
2023-02-16T18:21:57.624Z,98362.72
2023-02-16T18:24:28.095Z,98368.78
2023-02-16T18:26:58.516Z,98360.50
2023-02-16T18:29:28.965Z,98375.09
2023-02-16T18:32:05.207Z,98366.28
2023-02-16T18:34:35.629Z,98370.69
2023-02-16T18:37:08.517Z,98373.06
2023-02-16T18:39:41.329Z,98375.03
2023-02-16T18:42:12.452Z,98376.66
2023-02-16T18:44:41.838Z,98374.72
2023-02-16T18:47:11.473Z,98377.25
2023-02-16T18:49:44.325Z,98386.19
2023-02-16T18:52:16.606Z,98389.84
2023-02-16T18:54:48.047Z,98390.66
2023-02-16T18:57:17.973Z,98384.41
2023-02-16T18:59:49.266Z,98383.97
2023-02-16T19:02:20.752Z,98382.97
2023-02-16T19:04:52.887Z,98384.09
2023-02-16T19:07:25.924Z,98384.59
2023-02-16T19:09:57.465Z,98381.06
2023-02-16T19:12:28.095Z,98384.56
2023-02-16T19:14:58.861Z,98387.94
2023-02-16T19:17:28.860Z,98382.53
2023-02-16T19:20:00.216Z,98374.13
2023-02-16T19:22:34.523Z,98372.78
2023-02-16T19:25:09.553Z,98376.47
2023-02-16T19:27:40.283Z,98390.38
2023-02-16T19:30:13.922Z,98381.47
2023-02-16T19:32:44.710Z,98381.78
2023-02-16T19:35:15.478Z,98392.22
2023-02-16T19:37:48.317Z,98387.97
2023-02-16T19:40:20.874Z,98382.00
2023-02-16T19:42:51.820Z,98397.22
2023-02-16T19:45:24.081Z,98396.13
2023-02-16T19:47:56.647Z,98394.66
2023-02-16T19:50:28.258Z,98397.59
2023-02-16T19:53:01.858Z,98395.69
2023-02-16T19:55:34.928Z,98396.56
2023-02-16T19:58:08.900Z,98403.16
2023-02-16T20:00:43.192Z,98395.22
2023-02-16T20:03:16.119Z,98401.56
2023-02-16T20:05:46.516Z,98406.00
2023-02-16T20:08:20.541Z,98402.69
2023-02-16T20:10:55.719Z,98406.34
2023-02-16T20:13:26.939Z,98406.72
2023-02-16T20:15:57.651Z,98411.16
2023-02-16T20:18:28.941Z,98416.69
2023-02-16T20:21:03.583Z,98415.63
2023-02-16T20:23:38.123Z,98419.63
2023-02-16T20:26:10.982Z,98409.25
2023-02-16T20:28:41.966Z,98409.19
2023-02-16T20:31:15.999Z,98413.13
2023-02-16T20:33:46.543Z,98411.66
2023-02-16T20:36:16.452Z,98414.41
2023-02-16T20:38:52.785Z,98413.03
2023-02-16T20:41:24.335Z,98413.03
2023-02-16T20:43:53.888Z,98418.81
2023-02-16T20:46:25.554Z,98406.84
2023-02-16T20:48:56.006Z,98415.13
2023-02-16T20:51:27.367Z,98411.81
2023-02-16T20:54:01.506Z,98409.34
2023-02-16T20:56:33.959Z,98410.72
2023-02-16T20:59:05.489Z,98406.41
2023-02-16T21:01:39.201Z,98410.97
2023-02-16T21:04:11.253Z,98418.38
2023-02-16T21:06:41.337Z,98414.22
2023-02-16T21:09:13.605Z,98415.91
2023-02-16T21:11:47.253Z,98417.34
2023-02-16T21:14:17.166Z,98415.53
2023-02-16T21:16:47.181Z,98419.56
2023-02-16T21:19:23.354Z,98411.06
2023-02-16T21:21:55.589Z,98426.75
2023-02-16T21:24:27.099Z,98424.03
2023-02-16T21:26:56.058Z,98423.44
2023-02-16T21:29:25.541Z,98419.50
2023-02-16T21:31:56.009Z,98419.28
2023-02-16T21:34:25.477Z,98415.06
2023-02-16T21:36:55.741Z,98421.13
2023-02-16T21:39:46.843Z,98423.81
2023-02-16T21:42:14.936Z,98413.44
2023-02-16T21:44:45.193Z,98400.53
2023-02-16T21:47:32.952Z,98404.13
2023-02-16T21:50:01.440Z,98404.66
2023-02-16T21:52:31.213Z,98406.72
2023-02-16T21:55:18.692Z,98407.09
2023-02-16T21:57:47.753Z,98406.00
2023-02-16T22:00:17.316Z,98400.03
2023-02-16T22:02:45.984Z,98399.59
2023-02-16T22:05:14.719Z,98393.88
2023-02-16T22:07:43.479Z,98396.97
2023-02-16T22:10:13.553Z,98398.34
2023-02-16T22:12:41.914Z,98402.59
2023-02-16T22:15:10.518Z,98401.56
2023-02-16T22:17:39.259Z,98395.38
2023-02-16T22:20:10.071Z,98394.16
2023-02-16T22:22:38.474Z,98397.97
2023-02-16T22:25:07.248Z,98393.97
2023-02-16T22:27:37.387Z,98388.72
2023-02-16T22:30:06.903Z,98394.59
2023-02-16T22:32:35.166Z,98392.22
2023-02-16T22:35:03.383Z,98398.31
2023-02-16T22:37:33.216Z,98392.03
2023-02-16T22:40:01.470Z,98391.56
2023-02-16T22:42:31.594Z,98391.53
2023-02-16T22:45:01.295Z,98403.00
2023-02-16T22:47:30.436Z,98384.94
2023-02-16T22:49:58.661Z,98389.59
2023-02-16T22:52:27.180Z,98391.91
2023-02-16T22:54:55.530Z,98390.13
2023-02-16T22:57:23.765Z,98386.47
2023-02-16T22:59:51.970Z,98395.72
2023-02-16T23:02:21.665Z,98402.13
2023-02-16T23:04:49.899Z,98399.44
2023-02-16T23:07:18.144Z,98395.88
2023-02-16T23:12:50.627Z,98387.25
2023-02-16T23:15:47.050Z,98390.63
2023-02-16T23:18:16.700Z,98385.97
2023-02-16T23:20:44.963Z,98388.13
2023-02-16T23:23:13.184Z,98380.34
2023-02-16T23:25:45.514Z,98384.94
2023-02-16T23:28:14.070Z,98390.59
2023-02-16T23:30:44.234Z,98392.91
2023-02-16T23:33:13.009Z,98388.38
2023-02-16T23:35:43.376Z,98390.22
2023-02-16T23:38:14.877Z,98395.25
2023-02-16T23:40:43.247Z,98389.50
2023-02-16T23:43:11.682Z,98397.44
2023-02-16T23:45:40.389Z,98396.59
2023-02-16T23:48:08.594Z,98392.34
2023-02-16T23:50:36.849Z,98383.66
2023-02-16T23:53:06.477Z,98376.00
2023-02-16T23:55:34.702Z,98378.75
2023-02-16T23:58:02.991Z,98373.06
